createdAt,value
2023-01-17T00:00:58.516Z,18.20
2023-01-17T00:06:32.641Z,21.90
2023-01-17T00:11:35.101Z,19.60
2023-01-17T00:16:37.841Z,22.60
2023-01-17T00:22:06.304Z,20.50
2023-01-17T00:27:14.764Z,22.50
2023-01-17T00:32:17.791Z,21.10
2023-01-17T00:37:22.373Z,22.80
2023-01-17T00:42:24.894Z,19.00
2023-01-17T00:47:45.649Z,19.70
2023-01-17T00:53:07.032Z,13.10
2023-01-17T00:58:29.137Z,16.70
2023-01-17T01:03:50.068Z,13.90
2023-01-17T01:09:10.928Z,14.60
2023-01-17T01:14:34.806Z,12.40
2023-01-17T01:19:56.300Z,10.10
2023-01-17T01:25:23.788Z,7.50
2023-01-17T01:30:45.424Z,6.50
2023-01-17T01:35:55.407Z,5.50
2023-01-17T01:40:57.902Z,5.40
2023-01-17T01:46:00.204Z,4.00
2023-01-17T01:51:09.904Z,3.40
2023-01-17T01:56:15.607Z,3.50
2023-01-17T02:01:19.508Z,2.90
2023-01-17T02:06:34.140Z,2.30
2023-01-17T02:11:39.367Z,2.70
2023-01-17T02:17:03.919Z,2.10
2023-01-17T02:22:48.524Z,2.50
2023-01-17T02:27:54.641Z,2.00
2023-01-17T02:33:17.729Z,2.20
2023-01-17T02:38:34.000Z,2.20
2023-01-17T02:43:37.663Z,3.00
2023-01-17T02:48:40.162Z,2.80
2023-01-17T02:53:48.995Z,2.70
2023-01-17T02:59:14.172Z,3.00
2023-01-17T03:04:42.130Z,2.10
2023-01-17T03:09:47.088Z,2.50
2023-01-17T03:14:53.608Z,2.30
2023-01-17T03:19:56.720Z,2.30
2023-01-17T03:25:16.366Z,1.90
2023-01-17T03:30:23.121Z,2.20
2023-01-17T03:35:28.413Z,1.70
2023-01-17T03:40:37.847Z,2.30
2023-01-17T03:45:40.227Z,2.60
2023-01-17T03:50:43.685Z,2.60
2023-01-17T03:55:46.609Z,3.00
2023-01-17T04:00:49.806Z,3.70
2023-01-17T04:05:53.301Z,3.50
2023-01-17T04:10:55.316Z,3.80
2023-01-17T04:15:59.977Z,2.70
2023-01-17T04:21:02.612Z,3.70
2023-01-17T04:26:05.450Z,4.40
2023-01-17T04:31:07.874Z,4.10
2023-01-17T04:36:10.488Z,4.50
2023-01-17T04:41:12.556Z,4.40
2023-01-17T04:46:15.128Z,4.10
2023-01-17T04:51:18.228Z,4.90
2023-01-17T04:56:20.228Z,6.10
2023-01-17T05:01:22.708Z,6.90
2023-01-17T05:06:25.655Z,10.90
2023-01-17T05:11:30.446Z,11.80
2023-01-17T05:16:32.784Z,10.10
2023-01-17T05:21:35.298Z,11.00
2023-01-17T05:26:38.204Z,9.00
2023-01-17T05:31:40.725Z,9.40
2023-01-17T05:36:42.829Z,10.10
2023-01-17T05:41:45.758Z,11.40
2023-01-17T05:46:49.783Z,7.80
2023-01-17T05:51:54.831Z,6.30
2023-01-17T05:56:57.070Z,6.10
2023-01-17T06:01:59.045Z,7.90
2023-01-17T06:07:03.356Z,8.50
2023-01-17T06:12:06.342Z,8.90
2023-01-17T06:17:08.264Z,9.10
2023-01-17T06:22:10.399Z,9.00
2023-01-17T06:27:15.359Z,13.00
2023-01-17T06:32:17.386Z,16.90
2023-01-17T06:37:19.790Z,14.00
2023-01-17T06:42:22.245Z,13.70
2023-01-17T06:47:24.436Z,13.10
2023-01-17T06:52:30.256Z,13.80
2023-01-17T06:57:33.093Z,11.80
2023-01-17T07:02:37.110Z,10.60
2023-01-17T07:07:39.220Z,8.90
2023-01-17T07:12:46.962Z,9.80
2023-01-17T07:17:49.487Z,6.90
2023-01-17T07:22:52.584Z,7.20
2023-01-17T07:27:57.600Z,6.40
2023-01-17T07:33:00.392Z,7.20
2023-01-17T07:38:03.741Z,7.50
2023-01-17T07:43:17.308Z,7.50
2023-01-17T07:48:21.996Z,6.80
2023-01-17T07:53:30.779Z,6.20
2023-01-17T07:58:34.882Z,7.30
2023-01-17T08:03:40.666Z,7.00
2023-01-17T08:08:43.260Z,5.80
2023-01-17T08:13:48.396Z,5.80
2023-01-17T08:18:56.464Z,6.80
2023-01-17T08:24:15.411Z,5.90
2023-01-17T08:29:19.244Z,7.20
2023-01-17T08:34:23.843Z,5.50
2023-01-17T08:39:31.633Z,5.70
2023-01-17T08:44:34.704Z,6.10
2023-01-17T08:49:44.943Z,4.40
2023-01-17T08:54:53.865Z,5.40
2023-01-17T09:00:14.765Z,4.80
2023-01-17T09:05:17.029Z,5.30
2023-01-17T09:10:19.698Z,4.90
2023-01-17T09:15:26.690Z,4.10
2023-01-17T09:20:30.890Z,5.60
2023-01-17T09:25:33.077Z,4.50
2023-01-17T09:30:38.035Z,4.10
2023-01-17T09:35:40.724Z,5.50
2023-01-17T09:40:47.396Z,5.20
2023-01-17T09:45:50.252Z,5.10
2023-01-17T09:51:04.492Z,4.80
2023-01-17T09:56:31.423Z,5.10
2023-01-17T10:02:31.839Z,5.10
2023-01-17T10:08:04.774Z,5.10
2023-01-17T10:13:27.748Z,5.20
2023-01-17T10:18:55.615Z,4.60
2023-01-17T10:24:28.455Z,3.30
2023-01-17T10:29:36.987Z,4.00
2023-01-17T10:34:58.249Z,3.60
2023-01-17T10:40:38.471Z,2.90
2023-01-17T10:45:56.372Z,2.70
2023-01-17T10:51:43.092Z,2.40
2023-01-17T10:56:53.268Z,2.10
2023-01-17T11:01:55.973Z,2.00
2023-01-17T11:07:30.745Z,2.20
2023-01-17T11:12:45.517Z,2.40
2023-01-17T11:17:53.388Z,2.00
2023-01-17T11:23:05.948Z,2.90
2023-01-17T11:28:20.252Z,2.90
2023-01-17T11:34:13.970Z,2.70
2023-01-17T11:39:27.889Z,2.30
2023-01-17T11:44:35.095Z,2.10
2023-01-17T11:49:38.982Z,1.80
2023-01-17T11:54:47.962Z,2.10
2023-01-17T12:00:38.297Z,2.40
2023-01-17T12:05:43.193Z,2.50
2023-01-17T12:11:17.098Z,1.70
2023-01-17T12:16:53.538Z,2.50
2023-01-17T12:22:04.138Z,2.40
2023-01-17T12:27:34.604Z,2.20
2023-01-17T12:32:59.057Z,2.70
2023-01-17T12:38:09.166Z,2.80
2023-01-17T12:43:23.033Z,2.10
2023-01-17T12:48:30.882Z,2.90
2023-01-17T12:53:59.927Z,2.60
2023-01-17T12:59:27.964Z,2.80
2023-01-17T13:04:46.914Z,2.30
2023-01-17T13:10:26.957Z,3.50
2023-01-17T13:15:39.249Z,2.60
2023-01-17T13:21:05.282Z,2.20
2023-01-17T13:26:20.838Z,2.10
2023-01-17T13:31:50.874Z,2.70
2023-01-17T13:37:23.236Z,2.80
2023-01-17T13:42:42.495Z,2.60
2023-01-17T13:47:45.495Z,2.60
2023-01-17T13:52:50.797Z,2.20
2023-01-17T13:57:53.196Z,2.90
2023-01-17T14:02:55.676Z,1.90
2023-01-17T14:08:02.236Z,2.20
2023-01-17T14:13:06.870Z,2.30
2023-01-17T14:18:34.066Z,2.40
2023-01-17T14:24:15.978Z,3.90
2023-01-17T14:29:58.975Z,3.10
2023-01-17T14:35:02.273Z,2.80
2023-01-17T14:40:18.223Z,2.60
2023-01-17T14:45:26.851Z,3.30
2023-01-17T14:50:35.974Z,2.50
2023-01-17T14:55:39.080Z,2.20
2023-01-17T15:00:45.175Z,2.70
2023-01-17T15:05:52.250Z,2.80
2023-01-17T15:11:05.445Z,3.80
2023-01-17T15:16:24.406Z,2.70
2023-01-17T15:21:29.720Z,3.10
2023-01-17T15:26:34.767Z,3.70
2023-01-17T15:31:48.108Z,3.90
2023-01-17T15:36:51.166Z,4.80
2023-01-17T15:41:59.332Z,6.00
2023-01-17T15:47:02.496Z,6.90
2023-01-17T15:52:10.324Z,8.20
2023-01-17T15:57:24.765Z,8.40
2023-01-17T16:02:29.633Z,10.10
2023-01-17T16:07:36.207Z,8.00
2023-01-17T16:12:39.298Z,7.90
2023-01-17T16:17:48.052Z,8.70
2023-01-17T16:22:50.861Z,6.70
2023-01-17T16:27:53.284Z,8.40
2023-01-17T16:33:00.066Z,10.00
2023-01-17T16:38:15.532Z,18.30
2023-01-17T16:43:18.931Z,17.60
2023-01-17T16:48:21.960Z,21.20
2023-01-17T16:53:26.976Z,22.60
2023-01-17T16:58:28.826Z,26.80
2023-01-17T17:03:30.906Z,31.10
2023-01-17T17:08:37.106Z,32.70
2023-01-17T17:13:40.672Z,36.50
2023-01-17T17:18:44.883Z,38.70
2023-01-17T17:23:50.911Z,33.70
2023-01-17T17:28:54.152Z,33.00
2023-01-17T17:34:00.929Z,27.70
2023-01-17T17:39:04.790Z,27.00
2023-01-17T17:44:06.782Z,29.80
2023-01-17T17:49:09.199Z,24.00
2023-01-17T17:54:13.280Z,19.60
2023-01-17T17:59:18.497Z,17.00
2023-01-17T18:04:21.714Z,16.90
2023-01-17T18:09:24.273Z,15.60
2023-01-17T18:14:26.710Z,17.30
2023-01-17T18:19:28.812Z,20.50
2023-01-17T18:24:31.114Z,77.20
2023-01-17T18:29:33.253Z,35.40
2023-01-17T18:34:35.846Z,29.50
2023-01-17T18:39:37.871Z,31.40
2023-01-17T18:44:39.968Z,35.80
2023-01-17T18:49:43.047Z,37.50
2023-01-17T18:54:46.131Z,39.20
2023-01-17T18:59:48.283Z,50.50
2023-01-17T19:04:50.095Z,53.60
2023-01-17T19:09:51.958Z,51.90
2023-01-17T19:14:53.860Z,47.10
2023-01-17T19:19:57.115Z,49.40
2023-01-17T19:24:59.016Z,38.30
2023-01-17T19:30:01.566Z,43.30
2023-01-17T19:35:03.623Z,58.50
2023-01-17T19:40:08.406Z,59.00
2023-01-17T19:45:14.101Z,50.80
2023-01-17T19:50:18.698Z,41.50
2023-01-17T19:55:25.648Z,32.80
2023-01-17T20:00:30.372Z,36.30
2023-01-17T20:05:34.242Z,42.10
2023-01-17T20:10:36.042Z,34.80
2023-01-17T20:15:37.843Z,41.00
2023-01-17T20:20:56.314Z,36.30
2023-01-17T20:25:59.221Z,39.30
2023-01-17T20:31:10.309Z,42.50
2023-01-17T20:36:16.094Z,37.60
2023-01-17T20:41:25.714Z,39.70
2023-01-17T20:46:33.215Z,38.60
2023-01-17T20:51:37.685Z,36.60
2023-01-17T20:56:39.473Z,38.30
2023-01-17T21:01:43.790Z,39.90
2023-01-17T21:06:46.276Z,46.50
2023-01-17T21:11:48.939Z,41.10
2023-01-17T21:16:50.884Z,41.20
2023-01-17T21:21:53.083Z,33.20
2023-01-17T21:26:55.140Z,30.00
2023-01-17T21:31:57.400Z,33.60
2023-01-17T21:36:59.366Z,30.30
2023-01-17T21:42:01.420Z,28.00
2023-01-17T21:47:03.772Z,33.70
2023-01-17T21:52:05.630Z,28.00
2023-01-17T21:57:26.563Z,25.80
2023-01-17T22:02:28.451Z,26.20
2023-01-17T22:07:30.959Z,26.80
2023-01-17T22:12:33.152Z,28.90
2023-01-17T22:17:38.312Z,29.80
2023-01-17T22:22:40.259Z,29.50
2023-01-17T22:27:42.074Z,30.90
2023-01-17T22:32:43.919Z,24.90
2023-01-17T22:37:45.835Z,27.80
2023-01-17T22:42:48.131Z,26.00
2023-01-17T22:47:50.299Z,29.20
2023-01-17T22:52:52.137Z,28.40
2023-01-17T22:57:54.669Z,27.00
2023-01-17T23:02:56.914Z,22.40
2023-01-17T23:08:02.075Z,25.40
2023-01-17T23:13:04.303Z,30.80
2023-01-17T23:18:24.824Z,29.50
2023-01-17T23:23:26.940Z,27.90
2023-01-17T23:28:28.938Z,33.70
2023-01-17T23:33:31.025Z,34.20
2023-01-17T23:38:37.937Z,32.20
2023-01-17T23:43:40.182Z,35.00
2023-01-17T23:48:41.914Z,39.40
2023-01-17T23:53:43.830Z,34.80
2023-01-17T23:58:45.700Z,34.70
